Ana Sayfa
METAR-TAF:

METAR-TAF

Havaalanları :

Ordu-Giresun Havalimanı

Ordu, Türkiye

Enlem: 40-58-00N, Boylam: 38-04-48E, yükseklik: 5 m

Güncel hava durumu gözlemi

Rapor saat 10:50 UTC de 27 dakika önce yapıldı.
Rüzgar kuzeydan 4 kt, kuzey/kuzeybatı ve doğu/kuzeydoğu arasında değişken
Sıcaklık 26°C
Nem 65%
Basınç 1011 hPa
Görüş mesafesi 10 km veya daha fazla
3500 ft yükseklikte parçalı bulutlu

METAR: LTCB 151050Z 01004KT 340V060 9999 SCT035 26/19 Q1011

Saat: 14:17 (11:17 UTC)

Tahmin

Rapor saat 07:40 UTC de 3 saat ve 37 dakika önce yapıldı.
Ayın 15'si saat 09 UTC'den ayın 15'si saat 18 UTC'ye kadar geçerli Tahmin
Rüzgar değişken yönden 2 kt
Görüş mesafesi 10 km veya daha fazla
3500 ft yükseklikte parçalı bulutlu

TAF: LTCB 150740Z 1509/1518 VRB02KT 9999 SCT035

4.000'den fazla havaalanı için hava durumu gözlemleri ve tahminleri (METAR ve TAF raporları).

Kullanılabilir istasyonlar harita üzerinde sarı ve kırmızı noktalarla gösterilir.

İstasyonun adını görmek için fareyi noktanın üzerinde gezdirin.

Sonrasında hava gözlem ve tahminlerini görmek için tıklayın.

Haritayı değiştirmek için: yaklaştırmak için siyah artı işaretli yeşil düğmeye ve uzaklaştırmak için de eksi işaretli düğmeye hızla tıklayın; bitişik haritalar için yeşil okları kullanın.


METAR-TAF: